sensor_id;sensor_type;location;lat;lon;timestamp;temperature;humidity
17128;DHT22;8679;50.842;4.322;2023-08-06T00:00:09;15.30;99.90
17128;DHT22;8679;50.842;4.322;2023-08-06T00:02:35;15.30;99.90
17128;DHT22;8679;50.842;4.322;2023-08-06T00:05:00;15.30;99.90
17128;DHT22;8679;50.842;4.322;2023-08-06T00:07:26;15.20;99.90
17128;DHT22;8679;50.842;4.322;2023-08-06T00:09:52;15.30;99.90
17128;DHT22;8679;50.842;4.322;2023-08-06T00:12:17;15.30;99.90
17128;DHT22;8679;50.842;4.322;2023-08-06T00:14:43;15.30;99.90
17128;DHT22;8679;50.842;4.322;2023-08-06T00:17:09;15.40;99.90
17128;DHT22;8679;50.842;4.322;2023-08-06T00:19:35;15.30;99.90
17128;DHT22;8679;50.842;4.322;2023-08-06T00:22:01;15.40;99.90
17128;DHT22;8679;50.842;4.322;2023-08-06T00:24:27;15.40;99.90
17128;DHT22;8679;50.842;4.322;2023-08-06T00:26:53;15.40;99.90
17128;DHT22;8679;50.842;4.322;2023-08-06T00:29:19;15.40;99.90
17128;DHT22;8679;50.842;4.322;2023-08-06T00:31:45;15.40;99.90
17128;DHT22;8679;50.842;4.322;2023-08-06T00:34:10;15.30;99.90
17128;DHT22;8679;50.842;4.322;2023-08-06T00:36:36;15.40;99.90
17128;DHT22;8679;50.842;4.322;2023-08-06T00:39:02;15.40;99.90
17128;DHT22;8679;50.842;4.322;2023-08-06T00:41:28;15.40;99.90
17128;DHT22;8679;50.842;4.322;2023-08-06T00:43:54;15.50;99.90
17128;DHT22;8679;50.842;4.322;2023-08-06T00:46:20;15.50;99.90
17128;DHT22;8679;50.842;4.322;2023-08-06T00:48:46;15.40;99.90
17128;DHT22;8679;50.842;4.322;2023-08-06T00:51:12;15.50;99.90
17128;DHT22;8679;50.842;4.322;2023-08-06T00:53:39;15.50;99.90
17128;DHT22;8679;50.842;4.322;2023-08-06T00:56:06;15.40;99.90
17128;DHT22;8679;50.842;4.322;2023-08-06T00:58:32;15.40;99.90
17128;DHT22;8679;50.842;4.322;2023-08-06T01:00:58;15.50;99.90
17128;DHT22;8679;50.842;4.322;2023-08-06T01:03:23;15.40;99.90
17128;DHT22;8679;50.842;4.322;2023-08-06T01:05:50;15.50;99.90
17128;DHT22;8679;50.842;4.322;2023-08-06T01:11:08;15.50;99.90
17128;DHT22;8679;50.842;4.322;2023-08-06T01:13:47;15.50;99.90
17128;DHT22;8679;50.842;4.322;2023-08-06T01:16:18;15.50;99.90
17128;DHT22;8679;50.842;4.322;2023-08-06T01:18:47;15.50;99.90
17128;DHT22;8679;50.842;4.322;2023-08-06T01:21:15;15.50;99.90
17128;DHT22;8679;50.842;4.322;2023-08-06T01:23:42;15.50;99.90
17128;DHT22;8679;50.842;4.322;2023-08-06T01:26:32;15.50;99.90
17128;DHT22;8679;50.842;4.322;2023-08-06T01:29:10;15.50;99.90
17128;DHT22;8679;50.842;4.322;2023-08-06T01:31:38;15.50;99.90
17128;DHT22;8679;50.842;4.322;2023-08-06T01:34:10;15.50;99.90
17128;DHT22;8679;50.842;4.322;2023-08-06T01:36:38;15.50;99.90
17128;DHT22;8679;50.842;4.322;2023-08-06T01:39:05;15.50;99.90
17128;DHT22;8679;50.842;4.322;2023-08-06T01:41:34;15.50;99.90
17128;DHT22;8679;50.842;4.322;2023-08-06T01:44:03;15.60;99.90
17128;DHT22;8679;50.842;4.322;2023-08-06T01:46:28;15.50;99.90
17128;DHT22;8679;50.842;4.322;2023-08-06T01:48:54;15.50;99.90
17128;DHT22;8679;50.842;4.322;2023-08-06T01:51:19;15.50;99.90
17128;DHT22;8679;50.842;4.322;2023-08-06T01:53:45;15.50;99.90
17128;DHT22;8679;50.842;4.322;2023-08-06T01:56:11;15.50;99.90
17128;DHT22;8679;50.842;4.322;2023-08-06T01:58:37;15.50;99.90
17128;DHT22;8679;50.842;4.322;2023-08-06T02:01:03;15.50;99.90
17128;DHT22;8679;50.842;4.322;2023-08-06T02:03:28;15.40;99.90
17128;DHT22;8679;50.842;4.322;2023-08-06T02:05:55;15.40;99.90
17128;DHT22;8679;50.842;4.322;2023-08-06T02:08:20;15.40;99.90
17128;DHT22;8679;50.842;4.322;2023-08-06T02:10:46;15.30;99.90
17128;DHT22;8679;50.842;4.322;2023-08-06T02:13:12;15.20;99.90
17128;DHT22;8679;50.842;4.322;2023-08-06T02:15:47;15.30;99.90
17128;DHT22;8679;50.842;4.322;2023-08-06T02:18:13;15.20;99.90
17128;DHT22;8679;50.842;4.322;2023-08-06T02:20:40;15.20;99.90
17128;DHT22;8679;50.842;4.322;2023-08-06T02:23:06;15.20;99.90
17128;DHT22;8679;50.842;4.322;2023-08-06T02:25:32;15.20;99.90
17128;DHT22;8679;50.842;4.322;2023-08-06T02:28:01;15.20;99.90
17128;DHT22;8679;50.842;4.322;2023-08-06T02:30:27;15.20;99.90
17128;DHT22;8679;50.842;4.322;2023-08-06T02:32:59;15.10;99.90
17128;DHT22;8679;50.842;4.322;2023-08-06T02:35:31;15.10;99.90
17128;DHT22;8679;50.842;4.322;2023-08-06T02:40:32;15.00;99.90
17128;DHT22;8679;50.842;4.322;2023-08-06T02:42:58;15.00;99.90
17128;DHT22;8679;50.842;4.322;2023-08-06T02:45:26;15.00;99.90
17128;DHT22;8679;50.842;4.322;2023-08-06T02:47:52;15.00;99.90
17128;DHT22;8679;50.842;4.322;2023-08-06T02:50:30;15.00;99.90
17128;DHT22;8679;50.842;4.322;2023-08-06T02:52:58;15.00;99.90
17128;DHT22;8679;50.842;4.322;2023-08-06T02:55:27;15.00;99.90
17128;DHT22;8679;50.842;4.322;2023-08-06T02:57:56;15.00;99.90
17128;DHT22;8679;50.842;4.322;2023-08-06T03:00:21;15.00;99.90
17128;DHT22;8679;50.842;4.322;2023-08-06T03:02:47;15.00;99.90
17128;DHT22;8679;50.842;4.322;2023-08-06T03:05:19;15.00;99.90
17128;DHT22;8679;50.842;4.322;2023-08-06T03:07:44;14.90;99.90
17128;DHT22;8679;50.842;4.322;2023-08-06T03:10:10;15.00;99.90
17128;DHT22;8679;50.842;4.322;2023-08-06T03:12:36;15.00;99.90
17128;DHT22;8679;50.842;4.322;2023-08-06T03:15:02;15.00;99.90
17128;DHT22;8679;50.842;4.322;2023-08-06T03:17:28;15.00;99.90
17128;DHT22;8679;50.842;4.322;2023-08-06T03:19:53;15.00;99.90
17128;DHT22;8679;50.842;4.322;2023-08-06T03:22:19;15.00;99.90
17128;DHT22;8679;50.842;4.322;2023-08-06T03:24:45;15.00;99.90
17128;DHT22;8679;50.842;4.322;2023-08-06T03:27:10;15.10;99.90
17128;DHT22;8679;50.842;4.322;2023-08-06T03:29:36;15.10;99.90
17128;DHT22;8679;50.842;4.322;2023-08-06T03:32:02;15.20;99.90
17128;DHT22;8679;50.842;4.322;2023-08-06T03:34:27;15.20;99.90
17128;DHT22;8679;50.842;4.322;2023-08-06T03:36:53;15.20;99.90
17128;DHT22;8679;50.842;4.322;2023-08-06T03:39:19;15.20;99.90
17128;DHT22;8679;50.842;4.322;2023-08-06T03:41:44;15.20;99.90
17128;DHT22;8679;50.842;4.322;2023-08-06T03:44:10;15.30;99.90
17128;DHT22;8679;50.842;4.322;2023-08-06T03:46:36;15.20;99.90
17128;DHT22;8679;50.842;4.322;2023-08-06T03:49:01;15.20;99.90
17128;DHT22;8679;50.842;4.322;2023-08-06T04:06:03;15.10;99.90
17128;DHT22;8679;50.842;4.322;2023-08-06T04:08:29;14.70;99.90
17128;DHT22;8679;50.842;4.322;2023-08-06T04:10:55;14.70;99.90
17128;DHT22;8679;50.842;4.322;2023-08-06T04:13:21;14.60;99.90
17128;DHT22;8679;50.842;4.322;2023-08-06T04:15:47;14.60;99.90
17128;DHT22;8679;50.842;4.322;2023-08-06T04:18:13;14.60;99.90
17128;DHT22;8679;50.842;4.322;2023-08-06T04:20:43;14.60;99.90
17128;DHT22;8679;50.842;4.322;2023-08-06T04:23:10;14.60;99.90
17128;DHT22;8679;50.842;4.322;2023-08-06T04:25:35;14.60;99.90
17128;DHT22;8679;50.842;4.322;2023-08-06T04:28:01;14.60;99.90
17128;DHT22;8679;50.842;4.322;2023-08-06T04:30:27;14.60;99.90
17128;DHT22;8679;50.842;4.322;2023-08-06T04:32:52;14.60;99.90
17128;DHT22;8679;50.842;4.322;2023-08-06T04:35:18;14.60;99.90
17128;DHT22;8679;50.842;4.322;2023-08-06T04:37:43;14.60;99.90
17128;DHT22;8679;50.842;4.322;2023-08-06T04:40:09;14.50;99.90
17128;DHT22;8679;50.842;4.322;2023-08-06T04:42:35;14.50;99.90
17128;DHT22;8679;50.842;4.322;2023-08-06T04:45:02;14.50;99.90
17128;DHT22;8679;50.842;4.322;2023-08-06T07:06:23;14.40;99.90
17128;DHT22;8679;50.842;4.322;2023-08-06T07:08:48;14.60;99.90
17128;DHT22;8679;50.842;4.322;2023-08-06T07:11:14;14.70;99.90
17128;DHT22;8679;50.842;4.322;2023-08-06T07:13:40;14.80;99.90
17128;DHT22;8679;50.842;4.322;2023-08-06T07:16:05;14.80;99.90
17128;DHT22;8679;50.842;4.322;2023-08-06T07:18:31;14.90;99.90
17128;DHT22;8679;50.842;4.322;2023-08-06T07:20:57;15.00;99.90
17128;DHT22;8679;50.842;4.322;2023-08-06T07:23:24;15.00;99.90
17128;DHT22;8679;50.842;4.322;2023-08-06T07:25:50;15.00;99.90
17128;DHT22;8679;50.842;4.322;2023-08-06T07:28:16;15.00;99.90
17128;DHT22;8679;50.842;4.322;2023-08-06T07:30:43;15.00;99.90
17128;DHT22;8679;50.842;4.322;2023-08-06T07:33:09;15.00;99.90
17128;DHT22;8679;50.842;4.322;2023-08-06T07:35:35;15.00;99.90
17128;DHT22;8679;50.842;4.322;2023-08-06T07:38:02;15.00;99.90
17128;DHT22;8679;50.842;4.322;2023-08-06T07:40:28;15.10;99.90
17128;DHT22;8679;50.842;4.322;2023-08-06T07:42:54;15.20;99.90
17128;DHT22;8679;50.842;4.322;2023-08-06T07:45:20;15.10;99.90
17128;DHT22;8679;50.842;4.322;2023-08-06T07:47:46;15.20;99.90
17128;DHT22;8679;50.842;4.322;2023-08-06T07:50:12;15.20;99.90
17128;DHT22;8679;50.842;4.322;2023-08-06T07:52:38;15.20;99.90
17128;DHT22;8679;50.842;4.322;2023-08-06T07:55:04;15.20;99.90
17128;DHT22;8679;50.842;4.322;2023-08-06T07:57:33;15.20;99.90
17128;DHT22;8679;50.842;4.322;2023-08-06T08:00:00;15.20;99.90
17128;DHT22;8679;50.842;4.322;2023-08-06T08:02:26;15.30;99.90
17128;DHT22;8679;50.842;4.322;2023-08-06T08:09:44;15.30;99.90
17128;DHT22;8679;50.842;4.322;2023-08-06T08:12:10;15.50;99.90
17128;DHT22;8679;50.842;4.322;2023-08-06T08:14:35;15.60;99.90
17128;DHT22;8679;50.842;4.322;2023-08-06T08:17:05;15.60;99.90
17128;DHT22;8679;50.842;4.322;2023-08-06T08:19:34;15.40;99.90
17128;DHT22;8679;50.842;4.322;2023-08-06T08:22:00;15.30;99.90
17128;DHT22;8679;50.842;4.322;2023-08-06T08:24:26;15.20;99.90
17128;DHT22;8679;50.842;4.322;2023-08-06T08:26:52;15.00;99.90
17128;DHT22;8679;50.842;4.322;2023-08-06T08:29:19;15.00;99.90
17128;DHT22;8679;50.842;4.322;2023-08-06T08:31:45;15.00;99.90
17128;DHT22;8679;50.842;4.322;2023-08-06T08:34:11;15.00;99.90
17128;DHT22;8679;50.842;4.322;2023-08-06T08:36:37;15.10;99.90
17128;DHT22;8679;50.842;4.322;2023-08-06T09:01:07;15.10;99.90
17128;DHT22;8679;50.842;4.322;2023-08-06T09:03:35;15.50;99.90
17128;DHT22;8679;50.842;4.322;2023-08-06T09:06:02;15.50;99.90
17128;DHT22;8679;50.842;4.322;2023-08-06T09:08:35;15.60;99.90
17128;DHT22;8679;50.842;4.322;2023-08-06T09:11:03;15.40;99.90
17128;DHT22;8679;50.842;4.322;2023-08-06T09:13:30;15.20;99.90
17128;DHT22;8679;50.842;4.322;2023-08-06T09:15:55;15.00;99.90
17128;DHT22;8679;50.842;4.322;2023-08-06T09:18:27;14.90;99.90
17128;DHT22;8679;50.842;4.322;2023-08-06T09:20:54;14.90;99.90
17128;DHT22;8679;50.842;4.322;2023-08-06T09:28:12;14.90;99.90
17128;DHT22;8679;50.842;4.322;2023-08-06T09:30:38;14.70;99.90
17128;DHT22;8679;50.842;4.322;2023-08-06T09:33:08;14.70;99.90
17128;DHT22;8679;50.842;4.322;2023-08-06T09:35:35;14.60;99.90
17128;DHT22;8679;50.842;4.322;2023-08-06T09:38:08;14.60;99.90
17128;DHT22;8679;50.842;4.322;2023-08-06T09:40:36;14.60;99.90
17128;DHT22;8679;50.842;4.322;2023-08-06T09:43:02;14.50;99.90
17128;DHT22;8679;50.842;4.322;2023-08-06T09:45:35;14.50;99.90
17128;DHT22;8679;50.842;4.322;2023-08-06T09:48:08;14.60;99.90
17128;DHT22;8679;50.842;4.322;2023-08-06T09:50:36;14.60;99.90
17128;DHT22;8679;50.842;4.322;2023-08-06T09:53:06;14.60;99.90
17128;DHT22;8679;50.842;4.322;2023-08-06T09:55:34;14.60;99.90
17128;DHT22;8679;50.842;4.322;2023-08-06T09:58:00;14.70;99.90
17128;DHT22;8679;50.842;4.322;2023-08-06T10:00:26;14.70;99.90
17128;DHT22;8679;50.842;4.322;2023-08-06T10:02:53;14.70;99.90
17128;DHT22;8679;50.842;4.322;2023-08-06T10:05:22;14.90;99.90
17128;DHT22;8679;50.842;4.322;2023-08-06T10:07:49;15.00;99.90
17128;DHT22;8679;50.842;4.322;2023-08-06T10:10:16;15.00;99.90
17128;DHT22;8679;50.842;4.322;2023-08-06T10:12:49;15.10;99.90
17128;DHT22;8679;50.842;4.322;2023-08-06T10:17:45;15.10;99.90
17128;DHT22;8679;50.842;4.322;2023-08-06T10:20:12;15.10;99.90
17128;DHT22;8679;50.842;4.322;2023-08-06T10:22:43;15.20;99.90
17128;DHT22;8679;50.842;4.322;2023-08-06T10:25:09;15.20;99.90
17128;DHT22;8679;50.842;4.322;2023-08-06T10:27:40;15.10;99.90
17128;DHT22;8679;50.842;4.322;2023-08-06T10:30:26;15.00;99.90
17128;DHT22;8679;50.842;4.322;2023-08-06T10:32:54;14.90;99.90
17128;DHT22;8679;50.842;4.322;2023-08-06T10:38:10;14.50;99.90
17128;DHT22;8679;50.842;4.322;2023-08-06T10:43:33;14.30;99.90
17128;DHT22;8679;50.842;4.322;2023-08-06T10:46:03;14.30;99.90
17128;DHT22;8679;50.842;4.322;2023-08-06T10:48:37;14.30;99.90
17128;DHT22;8679;50.842;4.322;2023-08-06T10:51:09;14.40;99.90
17128;DHT22;8679;50.842;4.322;2023-08-06T10:53:36;14.50;99.90
17128;DHT22;8679;50.842;4.322;2023-08-06T10:56:15;14.50;99.90
17128;DHT22;8679;50.842;4.322;2023-08-06T10:58:42;14.60;99.90
17128;DHT22;8679;50.842;4.322;2023-08-06T11:01:08;14.80;99.90
17128;DHT22;8679;50.842;4.322;2023-08-06T11:03:34;15.00;99.90
17128;DHT22;8679;50.842;4.322;2023-08-06T11:06:00;15.10;99.90
17128;DHT22;8679;50.842;4.322;2023-08-06T11:08:27;15.20;99.90
17128;DHT22;8679;50.842;4.322;2023-08-06T11:10:53;15.20;99.90
17128;DHT22;8679;50.842;4.322;2023-08-06T11:13:20;15.30;99.90
17128;DHT22;8679;50.842;4.322;2023-08-06T11:15:46;15.40;99.90
17128;DHT22;8679;50.842;4.322;2023-08-06T11:18:12;15.40;99.90
17128;DHT22;8679;50.842;4.322;2023-08-06T11:20:38;15.40;99.90
17128;DHT22;8679;50.842;4.322;2023-08-06T11:23:04;15.50;99.90
17128;DHT22;8679;50.842;4.322;2023-08-06T11:25:30;15.50;99.90
17128;DHT22;8679;50.842;4.322;2023-08-06T11:30:22;15.60;99.90
17128;DHT22;8679;50.842;4.322;2023-08-06T11:32:48;15.60;99.90
17128;DHT22;8679;50.842;4.322;2023-08-06T11:35:15;15.50;99.90
17128;DHT22;8679;50.842;4.322;2023-08-06T14:07:40;15.40;99.90
17128;DHT22;8679;50.842;4.322;2023-08-06T14:10:06;15.20;99.90
17128;DHT22;8679;50.842;4.322;2023-08-06T14:12:32;15.20;99.90
17128;DHT22;8679;50.842;4.322;2023-08-06T17:45:00;15.20;99.90
17128;DHT22;8679;50.842;4.322;2023-08-06T17:47:25;19.20;99.90
17128;DHT22;8679;50.842;4.322;2023-08-06T17:49:51;19.30;99.90
17128;DHT22;8679;50.842;4.322;2023-08-06T17:52:17;19.20;99.90
17128;DHT22;8679;50.842;4.322;2023-08-06T17:54:42;19.40;99.90
17128;DHT22;8679;50.842;4.322;2023-08-06T17:57:08;20.00;99.90
17128;DHT22;8679;50.842;4.322;2023-08-06T17:59:34;19.70;99.90
17128;DHT22;8679;50.842;4.322;2023-08-06T18:02:00;19.00;99.90
17128;DHT22;8679;50.842;4.322;2023-08-06T18:04:25;18.50;99.90
17128;DHT22;8679;50.842;4.322;2023-08-06T18:06:51;18.50;99.90
17128;DHT22;8679;50.842;4.322;2023-08-06T18:09:17;18.30;99.90
17128;DHT22;8679;50.842;4.322;2023-08-06T18:11:42;18.70;99.90
17128;DHT22;8679;50.842;4.322;2023-08-06T18:14:08;19.40;99.90
17128;DHT22;8679;50.842;4.322;2023-08-06T18:16:34;19.60;99.90
17128;DHT22;8679;50.842;4.322;2023-08-06T18:19:00;19.90;99.90
17128;DHT22;8679;50.842;4.322;2023-08-06T18:21:25;19.70;99.90
17128;DHT22;8679;50.842;4.322;2023-08-06T18:23:51;19.20;99.90
17128;DHT22;8679;50.842;4.322;2023-08-06T18:26:17;18.80;99.90
17128;DHT22;8679;50.842;4.322;2023-08-06T18:28:42;18.40;99.90
17128;DHT22;8679;50.842;4.322;2023-08-06T18:31:10;18.00;99.90
17128;DHT22;8679;50.842;4.322;2023-08-06T18:33:37;17.90;99.90
17128;DHT22;8679;50.842;4.322;2023-08-06T18:36:04;17.70;99.90
17128;DHT22;8679;50.842;4.322;2023-08-06T18:38:30;17.50;99.90
17128;DHT22;8679;50.842;4.322;2023-08-06T18:40:57;17.20;99.90
17128;DHT22;8679;50.842;4.322;2023-08-06T18:43:23;17.00;99.90
17128;DHT22;8679;50.842;4.322;2023-08-06T18:45:49;16.90;99.90
17128;DHT22;8679;50.842;4.322;2023-08-06T18:48:14;16.90;99.90
17128;DHT22;8679;50.842;4.322;2023-08-06T18:50:42;16.70;99.90
17128;DHT22;8679;50.842;4.322;2023-08-06T18:53:07;16.70;99.90
17128;DHT22;8679;50.842;4.322;2023-08-06T18:55:33;16.50;99.90
17128;DHT22;8679;50.842;4.322;2023-08-06T18:58:01;16.40;99.90
17128;DHT22;8679;50.842;4.322;2023-08-06T19:00:30;16.30;99.90
17128;DHT22;8679;50.842;4.322;2023-08-06T19:02:57;16.30;99.90
17128;DHT22;8679;50.842;4.322;2023-08-06T19:05:25;16.20;99.90
17128;DHT22;8679;50.842;4.322;2023-08-06T19:07:51;16.10;99.90
17128;DHT22;8679;50.842;4.322;2023-08-06T19:10:16;16.00;99.90
17128;DHT22;8679;50.842;4.322;2023-08-06T19:12:42;16.00;1.00
17128;DHT22;8679;50.842;4.322;2023-08-06T19:15:08;15.90;1.00
17128;DHT22;8679;50.842;4.322;2023-08-06T19:17:34;15.80;1.00
17128;DHT22;8679;50.842;4.322;2023-08-06T19:20:00;15.70;1.00
17128;DHT22;8679;50.842;4.322;2023-08-06T19:22:25;15.70;99.90
17128;DHT22;8679;50.842;4.322;2023-08-06T19:24:51;15.60;99.90
17128;DHT22;8679;50.842;4.322;2023-08-06T19:27:17;15.50;99.90
17128;DHT22;8679;50.842;4.322;2023-08-06T19:29:42;15.50;1.00
17128;DHT22;8679;50.842;4.322;2023-08-06T19:32:08;15.40;1.00
17128;DHT22;8679;50.842;4.322;2023-08-06T19:34:34;15.30;1.00
17128;DHT22;8679;50.842;4.322;2023-08-06T19:37:00;15.20;11.00
17128;DHT22;8679;50.842;4.322;2023-08-06T19:39:25;15.20;1.00
17128;DHT22;8679;50.842;4.322;2023-08-06T19:41:51;15.10;1.00
17128;DHT22;8679;50.842;4.322;2023-08-06T19:44:17;15.10;99.90
17128;DHT22;8679;50.842;4.322;2023-08-06T19:46:42;15.00;99.90
17128;DHT22;8679;50.842;4.322;2023-08-06T19:49:08;15.00;1.00
17128;DHT22;8679;50.842;4.322;2023-08-06T19:51:34;15.00;1.00
17128;DHT22;8679;50.842;4.322;2023-08-06T19:54:11;14.90;1.00
17128;DHT22;8679;50.842;4.322;2023-08-06T19:56:36;14.80;99.90
17128;DHT22;8679;50.842;4.322;2023-08-06T19:59:02;14.70;85.80
17128;DHT22;8679;50.842;4.322;2023-08-06T20:01:29;14.70;99.90
17128;DHT22;8679;50.842;4.322;2023-08-06T20:03:56;14.70;1.00
17128;DHT22;8679;50.842;4.322;2023-08-06T20:06:22;14.70;99.90
17128;DHT22;8679;50.842;4.322;2023-08-06T20:08:55;14.70;99.90
17128;DHT22;8679;50.842;4.322;2023-08-06T20:11:21;14.70;99.90
17128;DHT22;8679;50.842;4.322;2023-08-06T20:13:47;14.70;99.90
17128;DHT22;8679;50.842;4.322;2023-08-06T20:16:13;14.60;99.90
17128;DHT22;8679;50.842;4.322;2023-08-06T20:18:39;14.60;99.90
17128;DHT22;8679;50.842;4.322;2023-08-06T20:21:05;14.50;1.00
17128;DHT22;8679;50.842;4.322;2023-08-06T20:23:31;14.40;99.90
17128;DHT22;8679;50.842;4.322;2023-08-06T20:25:57;14.40;99.90
17128;DHT22;8679;50.842;4.322;2023-08-06T20:28:23;14.30;99.90
17128;DHT22;8679;50.842;4.322;2023-08-06T20:30:51;14.30;99.90
17128;DHT22;8679;50.842;4.322;2023-08-06T20:33:16;14.30;99.90
17128;DHT22;8679;50.842;4.322;2023-08-06T20:35:42;14.30;99.90
17128;DHT22;8679;50.842;4.322;2023-08-06T20:38:08;14.20;99.90
17128;DHT22;8679;50.842;4.322;2023-08-06T20:40:35;14.10;99.90
17128;DHT22;8679;50.842;4.322;2023-08-06T20:43:04;14.10;73.00
17128;DHT22;8679;50.842;4.322;2023-08-06T20:45:30;14.10;99.90
17128;DHT22;8679;50.842;4.322;2023-08-06T20:47:56;14.00;99.90
17128;DHT22;8679;50.842;4.322;2023-08-06T20:50:21;14.00;99.90
17128;DHT22;8679;50.842;4.322;2023-08-06T20:52:47;13.90;99.90
17128;DHT22;8679;50.842;4.322;2023-08-06T20:55:13;13.90;99.90
17128;DHT22;8679;50.842;4.322;2023-08-06T20:57:38;13.80;99.90
17128;DHT22;8679;50.842;4.322;2023-08-06T21:00:05;13.70;99.90
17128;DHT22;8679;50.842;4.322;2023-08-06T21:02:31;13.60;99.90
17128;DHT22;8679;50.842;4.322;2023-08-06T21:04:56;13.60;99.90
17128;DHT22;8679;50.842;4.322;2023-08-06T21:07:22;13.50;99.90
17128;DHT22;8679;50.842;4.322;2023-08-06T21:09:47;13.50;99.90
17128;DHT22;8679;50.842;4.322;2023-08-06T21:12:13;13.50;99.90
17128;DHT22;8679;50.842;4.322;2023-08-06T21:14:39;13.50;99.90
17128;DHT22;8679;50.842;4.322;2023-08-06T21:17:05;13.40;99.90
17128;DHT22;8679;50.842;4.322;2023-08-06T21:19:30;13.40;99.90
17128;DHT22;8679;50.842;4.322;2023-08-06T21:21:59;13.40;99.90
17128;DHT22;8679;50.842;4.322;2023-08-06T21:24:25;13.40;99.90
17128;DHT22;8679;50.842;4.322;2023-08-06T21:26:51;13.30;99.90
17128;DHT22;8679;50.842;4.322;2023-08-06T21:29:17;13.30;99.90
17128;DHT22;8679;50.842;4.322;2023-08-06T21:31:43;13.30;99.90
17128;DHT22;8679;50.842;4.322;2023-08-06T21:34:09;13.30;99.90
17128;DHT22;8679;50.842;4.322;2023-08-06T21:36:34;13.20;99.90
17128;DHT22;8679;50.842;4.322;2023-08-06T21:39:02;13.20;99.90
17128;DHT22;8679;50.842;4.322;2023-08-06T21:41:28;13.20;99.90
17128;DHT22;8679;50.842;4.322;2023-08-06T21:43:54;13.20;99.90
17128;DHT22;8679;50.842;4.322;2023-08-06T21:46:21;13.20;99.90
17128;DHT22;8679;50.842;4.322;2023-08-06T21:48:49;13.20;99.90
17128;DHT22;8679;50.842;4.322;2023-08-06T21:51:16;13.20;99.90
17128;DHT22;8679;50.842;4.322;2023-08-06T21:53:43;13.20;99.90
17128;DHT22;8679;50.842;4.322;2023-08-06T21:56:11;13.20;99.90
17128;DHT22;8679;50.842;4.322;2023-08-06T21:58:40;13.20;99.90
17128;DHT22;8679;50.842;4.322;2023-08-06T22:01:08;13.20;99.90
17128;DHT22;8679;50.842;4.322;2023-08-06T22:03:37;13.30;99.90
17128;DHT22;8679;50.842;4.322;2023-08-06T22:06:03;13.30;99.90
17128;DHT22;8679;50.842;4.322;2023-08-06T22:08:29;13.30;99.90
17128;DHT22;8679;50.842;4.322;2023-08-06T22:10:55;13.30;99.90
17128;DHT22;8679;50.842;4.322;2023-08-06T22:13:25;13.30;99.90
17128;DHT22;8679;50.842;4.322;2023-08-06T22:15:51;13.30;99.90
17128;DHT22;8679;50.842;4.322;2023-08-06T22:18:17;13.20;99.90
17128;DHT22;8679;50.842;4.322;2023-08-06T22:20:43;13.20;99.90
17128;DHT22;8679;50.842;4.322;2023-08-06T22:23:12;13.20;99.90
17128;DHT22;8679;50.842;4.322;2023-08-06T22:25:37;13.20;99.90
17128;DHT22;8679;50.842;4.322;2023-08-06T22:28:03;13.10;99.90
17128;DHT22;8679;50.842;4.322;2023-08-06T22:30:29;13.10;99.90
